createdAt,value
2023-12-05T00:00:35.164Z,7.63
2023-12-05T00:03:02.958Z,7.50
2023-12-05T00:05:29.808Z,7.38
2023-12-05T00:07:56.932Z,6.97
2023-12-05T00:10:23.912Z,8.18
2023-12-05T00:12:50.854Z,7.80
2023-12-05T00:15:18.713Z,7.43
2023-12-05T00:17:46.802Z,7.43
2023-12-05T00:20:13.740Z,7.57
2023-12-05T00:22:40.782Z,8.50
2023-12-05T00:25:07.951Z,7.47
2023-12-05T00:27:35.812Z,8.13
2023-12-05T00:30:02.843Z,8.45
2023-12-05T00:32:29.664Z,8.40
2023-12-05T00:34:56.552Z,8.35
2023-12-05T00:37:23.375Z,8.83
2023-12-05T00:39:50.366Z,8.82
2023-12-05T00:42:17.173Z,8.65
2023-12-05T00:44:44.381Z,9.18
2023-12-05T00:47:11.938Z,9.50
2023-12-05T00:49:39.623Z,9.53
2023-12-05T00:52:06.794Z,9.55
2023-12-05T00:54:33.761Z,9.52
2023-12-05T00:57:00.645Z,9.02
2023-12-05T00:59:27.580Z,10.05
2023-12-05T01:01:54.412Z,8.83
2023-12-05T01:04:22.370Z,9.35
2023-12-05T01:06:49.483Z,9.32
2023-12-05T01:09:18.016Z,8.90
2023-12-05T01:11:44.907Z,9.73
2023-12-05T01:14:11.748Z,9.40
2023-12-05T01:16:43.304Z,9.50
2023-12-05T01:19:10.817Z,9.35
2023-12-05T01:21:37.850Z,9.57
2023-12-05T01:24:04.883Z,9.30
2023-12-05T01:26:31.769Z,9.83
2023-12-05T01:28:58.632Z,9.52
2023-12-05T01:31:25.794Z,9.55
2023-12-05T01:33:52.706Z,9.13
2023-12-05T01:36:20.971Z,9.65
2023-12-05T01:39:12.335Z,9.20
2023-12-05T01:41:39.478Z,9.82
2023-12-05T01:44:06.348Z,10.13
2023-12-05T01:46:33.519Z,9.55
2023-12-05T01:49:03.964Z,9.30
2023-12-05T01:51:33.642Z,9.77
2023-12-05T01:54:00.745Z,8.38
2023-12-05T01:56:28.032Z,9.40
2023-12-05T01:58:54.880Z,9.05
2023-12-05T02:01:22.828Z,9.38
2023-12-05T02:03:49.894Z,9.87
2023-12-05T02:06:18.341Z,9.65
2023-12-05T02:08:46.693Z,9.88
2023-12-05T02:17:48.887Z,9.07
2023-12-05T02:20:48.310Z,9.68
2023-12-05T02:23:44.963Z,9.20
2023-12-05T02:26:29.155Z,9.27
2023-12-05T02:28:56.737Z,9.80
2023-12-05T02:31:24.992Z,9.47
2023-12-05T02:33:52.658Z,10.10
2023-12-05T02:37:07.160Z,10.48
2023-12-05T02:39:41.916Z,9.73
2023-12-05T02:42:15.030Z,9.80
2023-12-05T02:44:47.639Z,9.73
2023-12-05T02:47:17.406Z,10.30
2023-12-05T02:49:44.536Z,9.82
2023-12-05T02:52:11.749Z,10.07
2023-12-05T02:54:39.033Z,9.95
2023-12-05T02:57:05.936Z,10.10
2023-12-05T02:59:33.398Z,10.20
2023-12-05T03:02:01.100Z,10.48
2023-12-05T03:04:28.046Z,9.48
2023-12-05T03:06:56.546Z,10.10
2023-12-05T03:09:23.392Z,10.50
2023-12-05T03:11:50.707Z,10.00
2023-12-05T03:14:18.960Z,10.65
2023-12-05T03:16:45.759Z,10.60
2023-12-05T03:19:12.711Z,10.27
2023-12-05T03:21:40.674Z,10.30
2023-12-05T03:24:08.128Z,10.18
2023-12-05T03:26:36.633Z,10.93
2023-12-05T03:29:04.976Z,9.70
2023-12-05T03:31:38.659Z,10.60
2023-12-05T03:34:07.807Z,10.37
2023-12-05T03:36:34.798Z,10.40
2023-12-05T03:41:54.622Z,10.90
2023-12-05T03:44:21.375Z,10.90
2023-12-05T03:46:51.598Z,11.53
2023-12-05T03:49:20.132Z,10.95
2023-12-05T03:51:47.120Z,12.48
2023-12-05T03:54:14.122Z,11.68
2023-12-05T03:56:40.922Z,12.00
2023-12-05T03:59:07.941Z,11.67
2023-12-05T04:01:35.999Z,10.95
2023-12-05T04:04:03.078Z,11.82
2023-12-05T04:06:30.406Z,12.00
2023-12-05T04:08:57.485Z,12.00
2023-12-05T04:11:35.229Z,12.33
2023-12-05T04:14:04.242Z,12.05
2023-12-05T04:16:31.294Z,12.77
2023-12-05T04:18:59.258Z,12.07
2023-12-05T04:21:26.200Z,12.35
2023-12-05T04:26:44.397Z,12.57
2023-12-05T04:29:11.255Z,12.95
2023-12-05T04:31:39.046Z,12.43
2023-12-05T04:34:05.985Z,12.38
2023-12-05T04:36:32.955Z,12.10
2023-12-05T04:38:59.724Z,12.23
2023-12-05T04:41:26.822Z,12.15
2023-12-05T04:43:53.782Z,12.60
2023-12-05T04:46:20.615Z,11.57
2023-12-05T04:48:47.664Z,12.40
2023-12-05T04:51:21.088Z,13.20
2023-12-05T04:53:49.286Z,13.00
2023-12-05T04:56:16.293Z,12.18
2023-12-05T04:58:43.112Z,12.73
2023-12-05T05:06:54.059Z,12.30
2023-12-05T05:09:20.911Z,13.00
2023-12-05T05:11:48.756Z,11.95
2023-12-05T05:14:15.567Z,12.80
2023-12-05T05:16:42.499Z,13.10
2023-12-05T05:19:09.537Z,13.10
2023-12-05T05:21:38.130Z,12.60
2023-12-05T05:24:05.133Z,13.10
2023-12-05T05:26:32.847Z,12.33
2023-12-05T05:28:59.741Z,11.73
2023-12-05T05:31:26.508Z,13.55
2023-12-05T05:33:54.256Z,12.77
2023-12-05T05:36:21.042Z,12.90
2023-12-05T05:38:47.960Z,12.07
2023-12-05T05:41:15.199Z,12.75
2023-12-05T05:43:42.126Z,13.00
2023-12-05T05:46:08.991Z,13.20
2023-12-05T05:48:36.081Z,13.20
2023-12-05T05:51:02.999Z,13.27
2023-12-05T05:53:31.438Z,13.32
2023-12-05T05:56:01.211Z,13.65
2023-12-05T05:58:29.767Z,12.82
2023-12-05T06:00:57.332Z,13.35
2023-12-05T06:03:25.793Z,12.80
2023-12-05T06:05:52.778Z,13.20
2023-12-05T06:08:21.710Z,12.65
2023-12-05T06:10:48.489Z,12.73
2023-12-05T06:13:16.758Z,12.95
2023-12-05T06:15:44.239Z,13.07
2023-12-05T06:18:11.023Z,12.77
2023-12-05T06:20:38.304Z,13.65
2023-12-05T06:23:05.186Z,13.38
2023-12-05T06:25:32.168Z,12.82
2023-12-05T06:27:58.936Z,12.87
2023-12-05T06:30:27.624Z,12.93
2023-12-05T06:32:55.187Z,13.18
2023-12-05T06:35:22.528Z,13.90
2023-12-05T06:37:50.324Z,12.90
2023-12-05T06:40:17.193Z,12.80
2023-12-05T06:42:44.066Z,13.07
2023-12-05T06:45:13.162Z,12.57
2023-12-05T06:47:40.197Z,12.13
2023-12-05T06:50:07.867Z,12.43
2023-12-05T06:52:35.774Z,12.57
2023-12-05T06:55:02.540Z,12.45
2023-12-05T06:57:29.895Z,12.55
2023-12-05T06:59:56.935Z,12.40
2023-12-05T07:02:23.919Z,12.93
2023-12-05T07:04:51.320Z,12.90
2023-12-05T07:07:18.305Z,12.63
2023-12-05T07:09:49.013Z,12.93
2023-12-05T07:12:15.859Z,12.50
2023-12-05T07:14:43.003Z,11.80
2023-12-05T07:17:10.318Z,13.10
2023-12-05T07:19:37.089Z,12.75
2023-12-05T07:24:55.883Z,12.27
2023-12-05T07:27:23.336Z,12.48
2023-12-05T07:29:50.302Z,12.93
2023-12-05T07:32:17.269Z,12.45
2023-12-05T07:34:44.347Z,12.85
2023-12-05T07:37:14.497Z,12.27
2023-12-05T07:39:41.502Z,13.55
2023-12-05T07:42:10.986Z,13.53
2023-12-05T07:44:39.551Z,12.52
2023-12-05T07:47:07.000Z,13.63
2023-12-05T07:49:35.852Z,12.82
2023-12-05T07:52:05.998Z,13.32
2023-12-05T07:54:32.978Z,12.87
2023-12-05T07:57:01.160Z,13.02
2023-12-05T07:59:29.021Z,13.07
2023-12-05T08:01:56.163Z,13.68
2023-12-05T08:04:24.099Z,13.38
2023-12-05T08:06:51.279Z,14.03
2023-12-05T08:09:20.084Z,13.20
2023-12-05T08:11:47.440Z,12.85
2023-12-05T08:14:14.525Z,13.73
2023-12-05T08:16:42.025Z,14.10
2023-12-05T08:19:09.149Z,13.70
2023-12-05T08:21:36.437Z,12.52
2023-12-05T08:24:03.883Z,14.30
2023-12-05T08:26:31.491Z,13.75
2023-12-05T08:28:59.497Z,14.60
2023-12-05T08:31:26.999Z,13.00
2023-12-05T08:33:54.105Z,14.02
2023-12-05T08:36:21.083Z,13.93
2023-12-05T08:38:48.603Z,14.20
2023-12-05T08:41:21.871Z,14.45
2023-12-05T08:43:49.007Z,14.53
2023-12-05T08:46:17.611Z,13.55
2023-12-05T08:48:46.164Z,13.80
2023-12-05T08:51:14.771Z,13.52
2023-12-05T08:53:42.488Z,14.02
2023-12-05T08:56:09.689Z,14.23
2023-12-05T08:58:38.256Z,14.07
2023-12-05T09:01:05.520Z,14.80
2023-12-05T09:03:32.725Z,14.43
2023-12-05T09:05:59.895Z,14.40
2023-12-05T09:08:27.032Z,13.67
2023-12-05T09:10:54.615Z,14.45
2023-12-05T09:13:21.574Z,14.45
2023-12-05T09:15:48.701Z,14.35
2023-12-05T09:18:15.727Z,14.15
2023-12-05T09:20:43.554Z,14.53
2023-12-05T09:23:10.458Z,14.02
2023-12-05T09:25:37.740Z,14.98
2023-12-05T09:28:04.825Z,14.02
2023-12-05T09:30:31.872Z,15.25
2023-12-05T09:33:00.660Z,14.37
2023-12-05T09:35:27.582Z,13.68
2023-12-05T09:38:00.025Z,14.40
2023-12-05T09:40:27.560Z,14.25
2023-12-05T09:42:58.369Z,13.95
2023-12-05T09:45:33.908Z,14.27
2023-12-05T09:48:04.586Z,14.00
2023-12-05T09:50:32.201Z,13.70
2023-12-05T09:53:00.728Z,14.27
2023-12-05T09:55:27.880Z,14.00
2023-12-05T09:57:56.925Z,13.00
2023-12-05T10:00:24.683Z,14.98
2023-12-05T10:02:57.130Z,14.13
2023-12-05T10:05:26.627Z,14.05
2023-12-05T10:07:54.655Z,14.75
2023-12-05T10:10:23.175Z,15.07
2023-12-05T10:12:51.208Z,13.82
2023-12-05T10:15:19.603Z,14.52
2023-12-05T10:17:53.218Z,14.43
2023-12-05T10:20:45.196Z,13.70
2023-12-05T10:23:12.502Z,13.70
2023-12-05T10:25:42.674Z,13.80
2023-12-05T10:31:14.064Z,13.93
2023-12-05T10:33:41.365Z,14.10
2023-12-05T10:36:12.683Z,13.63
2023-12-05T10:38:46.317Z,14.00
2023-12-05T10:41:22.481Z,14.02
2023-12-05T10:43:51.061Z,14.70
2023-12-05T10:46:18.919Z,14.18
2023-12-05T10:48:46.028Z,14.63
2023-12-05T10:51:13.121Z,14.65
2023-12-05T10:53:42.184Z,14.70
2023-12-05T10:56:16.584Z,14.68
2023-12-05T11:01:35.218Z,15.67
2023-12-05T11:04:02.896Z,15.75
2023-12-05T11:06:30.731Z,15.88
2023-12-05T11:08:58.160Z,14.95
2023-12-05T11:11:26.619Z,14.75
2023-12-05T11:13:55.183Z,15.97
2023-12-05T11:16:27.736Z,15.40
2023-12-05T11:19:12.326Z,15.88
2023-12-05T11:21:59.059Z,15.13
2023-12-05T11:24:35.266Z,15.63
2023-12-05T11:27:14.998Z,15.73
2023-12-05T11:30:38.490Z,15.27
2023-12-05T11:33:23.914Z,16.02
2023-12-05T11:36:17.355Z,15.48
2023-12-05T11:38:44.961Z,16.20
2023-12-05T11:41:18.215Z,16.00
2023-12-05T11:44:14.161Z,15.90
2023-12-05T11:46:45.546Z,16.52
2023-12-05T11:49:12.906Z,16.08
2023-12-05T11:52:10.209Z,15.68
2023-12-05T11:54:38.121Z,15.63
2023-12-05T11:57:17.970Z,16.58
2023-12-05T11:59:48.229Z,15.77
2023-12-05T12:02:20.126Z,17.17
2023-12-05T12:04:48.899Z,17.92
2023-12-05T12:07:15.848Z,16.20
2023-12-05T12:09:45.398Z,15.82
2023-12-05T12:12:14.206Z,16.75
2023-12-05T12:14:43.238Z,16.65
2023-12-05T12:17:10.266Z,16.63
2023-12-05T12:19:38.089Z,16.07
2023-12-05T12:22:13.438Z,16.52
2023-12-05T12:24:46.290Z,15.48
2023-12-05T12:27:14.875Z,15.88
2023-12-05T12:29:53.319Z,16.05
2023-12-05T12:32:21.962Z,16.37
2023-12-05T12:34:48.886Z,16.75
2023-12-05T12:37:21.214Z,16.23
2023-12-05T12:39:50.456Z,16.92
2023-12-05T12:42:19.469Z,17.02
2023-12-05T12:44:46.432Z,16.40
2023-12-05T12:47:15.164Z,15.45
2023-12-05T12:49:44.444Z,15.82
2023-12-05T12:52:12.189Z,16.48
2023-12-05T12:54:39.414Z,15.98
2023-12-05T12:57:11.299Z,15.80
2023-12-05T12:59:41.534Z,15.43
2023-12-05T13:02:10.713Z,15.80
2023-12-05T13:04:38.431Z,17.33
2023-12-05T13:07:05.824Z,16.52
2023-12-05T13:09:34.349Z,17.17
2023-12-05T13:12:01.390Z,17.20
2023-12-05T13:14:28.342Z,16.58
2023-12-05T13:16:58.310Z,16.42
2023-12-05T13:19:29.072Z,16.70
2023-12-05T13:21:57.118Z,16.00
2023-12-05T13:24:24.176Z,15.00
2023-12-05T13:26:52.316Z,16.45
2023-12-05T13:29:19.537Z,16.42
2023-12-05T13:31:47.151Z,16.13
2023-12-05T13:34:14.391Z,17.30
2023-12-05T13:36:41.463Z,16.42
2023-12-05T13:39:11.060Z,17.30
2023-12-05T13:41:39.755Z,16.95
2023-12-05T13:44:07.482Z,16.92
2023-12-05T13:46:34.484Z,16.97
2023-12-05T13:49:02.072Z,17.38
2023-12-05T13:51:29.829Z,18.13
2023-12-05T13:53:57.075Z,17.52
2023-12-05T13:56:24.130Z,16.73
2023-12-05T13:58:51.867Z,16.67
2023-12-05T14:01:18.822Z,17.00
2023-12-05T14:04:11.619Z,16.60
2023-12-05T14:06:39.033Z,17.20
2023-12-05T14:09:06.043Z,16.60
2023-12-05T14:11:33.478Z,16.17
2023-12-05T14:14:02.006Z,16.80
2023-12-05T14:16:28.935Z,16.80
2023-12-05T14:18:57.442Z,17.77
2023-12-05T14:21:24.440Z,15.98
2023-12-05T14:24:17.493Z,16.17
2023-12-05T14:26:44.475Z,15.98
2023-12-05T14:29:11.904Z,16.58
2023-12-05T14:31:40.543Z,17.23
2023-12-05T14:34:09.306Z,16.70
2023-12-05T14:36:38.169Z,17.50
2023-12-05T14:39:10.712Z,15.88
2023-12-05T14:41:38.655Z,16.92
2023-12-05T14:44:05.629Z,17.05
2023-12-05T14:46:33.586Z,16.50
2023-12-05T14:49:01.931Z,18.00
2023-12-05T14:51:29.458Z,16.77
2023-12-05T14:53:56.920Z,15.52
2023-12-05T14:56:24.120Z,17.00
2023-12-05T14:58:53.326Z,17.60
2023-12-05T15:01:20.795Z,17.70
2023-12-05T15:03:48.379Z,18.15
2023-12-05T15:06:15.960Z,17.55
2023-12-05T15:08:45.113Z,18.15
2023-12-05T15:11:14.098Z,17.52
2023-12-05T15:13:41.049Z,16.70
2023-12-05T15:16:09.508Z,17.10
2023-12-05T15:18:38.041Z,15.25
2023-12-05T15:21:05.377Z,16.55
2023-12-05T15:23:32.583Z,16.13
2023-12-05T15:26:00.477Z,14.67
2023-12-05T15:28:27.889Z,16.33
2023-12-05T15:30:56.306Z,17.98
2023-12-05T15:33:23.414Z,17.70
2023-12-05T15:35:53.948Z,17.98
2023-12-05T15:38:21.058Z,16.53
2023-12-05T15:40:48.002Z,16.60
2023-12-05T15:43:17.449Z,15.60
2023-12-05T15:45:45.930Z,16.23
2023-12-05T15:48:42.680Z,15.88
2023-12-05T15:51:00.753Z,15.87
2023-12-05T15:53:28.028Z,15.30
2023-12-05T15:55:54.912Z,16.42
2023-12-05T15:58:23.482Z,15.40
2023-12-05T16:00:58.984Z,15.70
2023-12-05T16:03:28.686Z,15.83
2023-12-05T16:05:59.171Z,14.95
2023-12-05T16:08:26.180Z,16.48
2023-12-05T16:10:53.949Z,15.05
2023-12-05T16:13:20.998Z,15.50
2023-12-05T16:15:49.443Z,17.27
2023-12-05T16:18:16.441Z,16.63
2023-12-05T16:20:43.548Z,15.52
2023-12-05T16:23:10.711Z,16.10
2023-12-05T16:25:37.597Z,16.67
2023-12-05T16:28:05.242Z,17.97
2023-12-05T16:30:32.230Z,16.58
2023-12-05T16:33:00.576Z,17.30
2023-12-05T16:35:29.211Z,16.95
2023-12-05T16:37:56.120Z,15.85
2023-12-05T16:40:24.055Z,15.27
2023-12-05T16:42:51.114Z,16.15
2023-12-05T16:45:18.119Z,15.27
2023-12-05T16:47:46.308Z,14.55
2023-12-05T16:50:13.253Z,16.38
2023-12-05T16:52:41.125Z,16.13
2023-12-05T16:55:09.050Z,15.77
2023-12-05T16:57:36.338Z,15.65
2023-12-05T17:00:03.519Z,16.17
2023-12-05T17:02:55.892Z,18.17
2023-12-05T17:05:22.935Z,16.73
2023-12-05T17:07:49.915Z,15.98
2023-12-05T17:13:08.860Z,16.83
2023-12-05T17:15:36.613Z,16.08
2023-12-05T17:18:05.269Z,16.13
2023-12-05T17:20:33.290Z,16.38
2023-12-05T17:23:00.186Z,15.80
2023-12-05T17:25:27.359Z,16.20
2023-12-05T17:27:54.604Z,15.82
2023-12-05T17:30:21.673Z,17.07
2023-12-05T17:32:50.150Z,16.15
2023-12-05T17:35:17.096Z,16.55
2023-12-05T17:37:45.194Z,15.98
2023-12-05T17:40:12.566Z,16.58
2023-12-05T17:42:40.433Z,16.10
2023-12-05T17:45:11.480Z,16.05
2023-12-05T17:47:38.816Z,16.40
2023-12-05T17:50:06.600Z,16.83
2023-12-05T17:52:35.634Z,16.15
2023-12-05T17:55:03.276Z,16.73
2023-12-05T17:57:30.200Z,16.40
2023-12-05T17:59:57.198Z,16.52
2023-12-05T18:02:24.795Z,16.40
2023-12-05T18:04:51.890Z,16.77
2023-12-05T18:07:51.890Z,17.27
2023-12-05T18:10:06.305Z,16.23
2023-12-05T18:12:33.602Z,15.93
2023-12-05T18:15:00.759Z,16.27
2023-12-05T18:17:27.792Z,16.45
2023-12-05T18:19:54.934Z,17.13
2023-12-05T18:22:21.874Z,17.40
2023-12-05T18:24:49.487Z,16.73
2023-12-05T18:27:16.817Z,17.20
2023-12-05T18:29:44.850Z,17.10
2023-12-05T18:32:11.938Z,18.47
2023-12-05T18:34:39.148Z,17.02
2023-12-05T18:37:06.687Z,16.45
2023-12-05T18:39:34.111Z,17.15
2023-12-05T18:42:01.315Z,16.92
2023-12-05T18:44:28.706Z,16.77
2023-12-05T18:46:55.766Z,16.67
2023-12-05T18:49:23.215Z,17.80
2023-12-05T18:51:50.535Z,17.77
2023-12-05T18:54:17.788Z,18.00
2023-12-05T18:56:46.416Z,17.67
2023-12-05T18:59:13.567Z,17.60
2023-12-05T19:01:41.150Z,17.13
2023-12-05T19:04:08.596Z,17.83
2023-12-05T19:06:36.012Z,17.30
2023-12-05T19:09:03.541Z,18.37
2023-12-05T19:11:30.799Z,18.02
2023-12-05T19:13:58.143Z,17.42
2023-12-05T19:16:25.587Z,18.20
2023-12-05T19:18:53.115Z,17.65
2023-12-05T19:21:20.783Z,16.97
2023-12-05T19:23:48.508Z,17.95
2023-12-05T19:26:26.707Z,18.63
2023-12-05T19:28:57.563Z,18.15
2023-12-05T19:31:27.126Z,18.08
2023-12-05T19:33:54.852Z,17.87
2023-12-05T19:36:22.480Z,17.20
2023-12-05T19:38:50.300Z,17.83
2023-12-05T19:41:17.834Z,17.13
2023-12-05T19:43:45.412Z,17.92
2023-12-05T19:46:13.254Z,18.13
2023-12-05T19:48:41.091Z,19.20
2023-12-05T19:51:08.538Z,19.27
2023-12-05T19:53:37.477Z,19.73
2023-12-05T19:56:05.253Z,18.58
2023-12-05T19:58:32.804Z,18.60
2023-12-05T20:01:01.584Z,27.02
2023-12-05T20:03:29.520Z,19.27
2023-12-05T20:05:59.801Z,18.55
2023-12-05T20:08:27.306Z,18.50
2023-12-05T20:10:54.906Z,19.70
2023-12-05T20:13:22.717Z,23.30
2023-12-05T20:15:50.385Z,22.15
2023-12-05T20:18:18.043Z,20.58
2023-12-05T20:20:45.773Z,20.35
2023-12-05T20:23:13.213Z,19.30
2023-12-05T20:25:40.707Z,19.52
2023-12-05T20:28:08.217Z,20.05
2023-12-05T20:30:35.757Z,19.90
2023-12-05T20:33:03.749Z,20.50
2023-12-05T20:35:31.344Z,19.27
2023-12-05T20:37:58.829Z,18.92
2023-12-05T20:40:26.432Z,19.70
2023-12-05T20:42:53.958Z,19.90
2023-12-05T20:45:21.466Z,19.00
2023-12-05T20:47:48.883Z,19.47
2023-12-05T20:50:16.088Z,20.10
2023-12-05T20:52:43.699Z,19.83
2023-12-05T20:55:10.574Z,19.13
2023-12-05T20:57:37.720Z,18.92
2023-12-05T21:00:05.073Z,19.10
2023-12-05T21:02:31.932Z,19.30
2023-12-05T21:04:59.256Z,19.10
2023-12-05T21:07:28.658Z,19.65
2023-12-05T21:09:56.640Z,20.38
2023-12-05T21:12:23.437Z,19.30
2023-12-05T21:14:50.319Z,19.00
2023-12-05T21:17:17.540Z,19.40
2023-12-05T21:19:44.781Z,18.42
2023-12-05T21:22:11.696Z,20.10
2023-12-05T21:24:40.197Z,20.70
2023-12-05T21:27:07.330Z,19.58
2023-12-05T21:29:34.116Z,20.05
2023-12-05T21:32:00.998Z,18.70
2023-12-05T21:34:27.866Z,18.73
2023-12-05T21:36:54.917Z,19.73
2023-12-05T21:39:21.723Z,20.25
2023-12-05T21:41:48.766Z,20.38
2023-12-05T21:44:15.600Z,19.98
2023-12-05T21:46:42.359Z,20.83
2023-12-05T21:49:09.284Z,19.93
2023-12-05T21:51:36.147Z,19.52
2023-12-05T21:54:03.543Z,20.70
2023-12-05T21:56:30.602Z,19.27
2023-12-05T21:58:57.350Z,19.05
2023-12-05T22:01:24.361Z,20.50
2023-12-05T22:03:51.587Z,18.92
2023-12-05T22:06:18.463Z,19.10
2023-12-05T22:08:45.339Z,19.50
2023-12-05T22:11:12.165Z,18.90
2023-12-05T22:13:39.099Z,19.00
2023-12-05T22:16:06.337Z,19.02
2023-12-05T22:18:33.362Z,20.10
2023-12-05T22:21:00.731Z,19.92
2023-12-05T22:23:28.281Z,20.25
2023-12-05T22:26:00.300Z,21.27
2023-12-05T22:28:27.153Z,20.27
2023-12-05T22:30:53.956Z,20.58
2023-12-05T22:33:20.912Z,20.58
2023-12-05T22:35:47.734Z,20.70
2023-12-05T22:38:14.578Z,19.60
2023-12-05T22:40:41.416Z,20.77
2023-12-05T22:43:09.241Z,20.55
2023-12-05T22:45:36.115Z,21.20
2023-12-05T22:48:03.135Z,20.90
2023-12-05T22:50:29.957Z,20.87
2023-12-05T22:52:56.842Z,20.02
2023-12-05T22:55:23.592Z,20.17
2023-12-05T22:57:50.605Z,21.75
2023-12-05T23:00:18.302Z,20.60
2023-12-05T23:02:45.160Z,21.60
2023-12-05T23:05:11.949Z,21.55
2023-12-05T23:07:38.832Z,21.08
2023-12-05T23:10:06.073Z,21.85
2023-12-05T23:12:33.141Z,21.27
2023-12-05T23:14:59.996Z,21.23
2023-12-05T23:17:26.867Z,20.83
2023-12-05T23:19:54.009Z,20.98
2023-12-05T23:22:20.845Z,21.10
2023-12-05T23:24:47.718Z,20.95
2023-12-05T23:27:14.585Z,21.83
2023-12-05T23:29:41.878Z,20.70
2023-12-05T23:32:08.696Z,20.52
2023-12-05T23:34:35.548Z,22.88
2023-12-05T23:37:02.501Z,22.88
2023-12-05T23:39:30.328Z,22.30
2023-12-05T23:41:57.865Z,22.15
2023-12-05T23:44:24.771Z,22.67
2023-12-05T23:46:51.648Z,22.30
2023-12-05T23:49:18.618Z,22.85
2023-12-05T23:51:45.485Z,23.07
2023-12-05T23:54:12.624Z,23.35
2023-12-05T23:56:39.398Z,23.92
2023-12-05T23:59:06.329Z,23.48
